Information Last Ob Photographs Calibration Meteogram Network Table Neighbors Monthly Summaries Observation History Wind Roses Custom Wind Roses Data Calendar Satellite Cloud Product Download

Most Recent Observation

This application displays the last observation received by the IEM from this site. The time stamp is in America/Chicago timezone.

Observation Local Time23 Feb 2024, 5:15 PM
Observation UTC Time2024-02-23T23:15:00Z
Air Temp [F]57.2
Maximum Air Temperature [F]59
Minimum Air Temperature [F]23
Dew Point [F]21.2
Wind DirectionNNW (330 degrees)
Wind Speed [knots]14
Altimeter [inches]29.87
Raw Observation/ProductKICL 232315Z AUTO 33014KT 10SM CLR 14/M06 A2987 RMK AO2
Cloud Layer 1: CLR ( feet)

This data was provided by a JSON(P) webservice. You can find more JSON services.